sensor_id;sensor_type;location;lat;lon;timestamp;P1;durP1;ratioP1;P2;durP2;ratioP2
33160;SDS011;19522;45.656;11.302;2022-10-13T00:01:14;18.55;;;10.52;;
33160;SDS011;19522;45.656;11.302;2022-10-13T00:03:41;13.85;;;10.20;;
33160;SDS011;19522;45.656;11.302;2022-10-13T00:06:11;15.23;;;9.60;;
33160;SDS011;19522;45.656;11.302;2022-10-13T00:08:38;18.67;;;9.57;;
33160;SDS011;19522;45.656;11.302;2022-10-13T00:11:11;15.48;;;9.25;;
33160;SDS011;19522;45.656;11.302;2022-10-13T00:13:40;17.10;;;10.35;;
33160;SDS011;19522;45.656;11.302;2022-10-13T00:16:13;18.20;;;9.93;;
33160;SDS011;19522;45.656;11.302;2022-10-13T00:18:39;17.10;;;10.75;;
33160;SDS011;19522;45.656;11.302;2022-10-13T00:21:06;20.30;;;10.45;;
33160;SDS011;19522;45.656;11.302;2022-10-13T00:23:36;20.90;;;10.23;;
33160;SDS011;19522;45.656;11.302;2022-10-13T00:26:03;17.48;;;9.45;;
33160;SDS011;19522;45.656;11.302;2022-10-13T00:28:30;17.83;;;10.35;;
33160;SDS011;19522;45.656;11.302;2022-10-13T00:30:56;22.40;;;10.60;;
33160;SDS011;19522;45.656;11.302;2022-10-13T00:33:21;12.65;;;9.82;;
33160;SDS011;19522;45.656;11.302;2022-10-13T00:35:47;18.42;;;10.40;;
33160;SDS011;19522;45.656;11.302;2022-10-13T00:38:14;17.10;;;10.30;;
33160;SDS011;19522;45.656;11.302;2022-10-13T00:43:25;16.42;;;9.57;;
33160;SDS011;19522;45.656;11.302;2022-10-13T00:46:11;18.20;;;9.90;;
33160;SDS011;19522;45.656;11.302;2022-10-13T00:48:36;15.25;;;9.77;;
33160;SDS011;19522;45.656;11.302;2022-10-13T00:51:02;18.67;;;10.13;;
33160;SDS011;19522;45.656;11.302;2022-10-13T00:53:29;15.98;;;9.48;;
33160;SDS011;19522;45.656;11.302;2022-10-13T00:55:58;18.55;;;10.32;;
33160;SDS011;19522;45.656;11.302;2022-10-13T00:58:27;22.15;;;10.02;;
33160;SDS011;19522;45.656;11.302;2022-10-13T01:00:55;16.00;;;8.95;;
33160;SDS011;19522;45.656;11.302;2022-10-13T01:03:21;17.33;;;9.88;;
33160;SDS011;19522;45.656;11.302;2022-10-13T01:05:49;11.80;;;7.88;;
33160;SDS011;19522;45.656;11.302;2022-10-13T01:08:16;17.50;;;9.65;;
33160;SDS011;19522;45.656;11.302;2022-10-13T01:11:00;14.25;;;8.68;;
33160;SDS011;19522;45.656;11.302;2022-10-13T01:16:59;16.85;;;10.18;;
33160;SDS011;19522;45.656;11.302;2022-10-13T01:22:36;17.95;;;8.93;;
33160;SDS011;19522;45.656;11.302;2022-10-13T01:30:36;15.65;;;9.25;;
33160;SDS011;19522;45.656;11.302;2022-10-13T01:33:13;13.65;;;9.07;;
33160;SDS011;19522;45.656;11.302;2022-10-13T01:41:13;14.30;;;9.20;;
33160;SDS011;19522;45.656;11.302;2022-10-13T01:43:56;12.90;;;9.02;;
33160;SDS011;19522;45.656;11.302;2022-10-13T01:46:40;15.55;;;9.45;;
33160;SDS011;19522;45.656;11.302;2022-10-13T01:49:11;11.70;;;8.73;;
33160;SDS011;19522;45.656;11.302;2022-10-13T01:51:41;12.82;;;8.70;;
33160;SDS011;19522;45.656;11.302;2022-10-13T01:54:08;17.83;;;9.75;;
33160;SDS011;19522;45.656;11.302;2022-10-13T01:56:34;13.68;;;8.82;;
33160;SDS011;19522;45.656;11.302;2022-10-13T01:59:05;12.68;;;8.60;;
33160;SDS011;19522;45.656;11.302;2022-10-13T02:09:49;11.75;;;8.35;;
33160;SDS011;19522;45.656;11.302;2022-10-13T02:12:28;11.80;;;8.35;;
33160;SDS011;19522;45.656;11.302;2022-10-13T02:14:58;13.25;;;8.77;;
33160;SDS011;19522;45.656;11.302;2022-10-13T02:17:25;19.33;;;9.55;;
33160;SDS011;19522;45.656;11.302;2022-10-13T02:19:52;16.67;;;9.43;;
33160;SDS011;19522;45.656;11.302;2022-10-13T02:22:19;15.52;;;9.40;;
33160;SDS011;19522;45.656;11.302;2022-10-13T02:24:48;12.00;;;8.35;;
33160;SDS011;19522;45.656;11.302;2022-10-13T02:27:14;15.27;;;8.60;;
33160;SDS011;19522;45.656;11.302;2022-10-13T02:29:50;14.10;;;8.55;;
33160;SDS011;19522;45.656;11.302;2022-10-13T02:32:17;13.30;;;8.50;;
33160;SDS011;19522;45.656;11.302;2022-10-13T02:34:42;14.20;;;9.05;;
33160;SDS011;19522;45.656;11.302;2022-10-13T02:37:08;19.83;;;8.88;;
33160;SDS011;19522;45.656;11.302;2022-10-13T02:39:33;15.65;;;9.57;;
33160;SDS011;19522;45.656;11.302;2022-10-13T02:41:58;14.13;;;9.43;;
33160;SDS011;19522;45.656;11.302;2022-10-13T02:44:24;15.35;;;8.68;;
33160;SDS011;19522;45.656;11.302;2022-10-13T02:46:49;11.98;;;8.18;;
33160;SDS011;19522;45.656;11.302;2022-10-13T02:49:15;12.85;;;8.98;;
33160;SDS011;19522;45.656;11.302;2022-10-13T02:51:40;11.88;;;8.63;;
33160;SDS011;19522;45.656;11.302;2022-10-13T02:54:06;14.48;;;8.52;;
33160;SDS011;19522;45.656;11.302;2022-10-13T02:56:32;13.32;;;8.63;;
33160;SDS011;19522;45.656;11.302;2022-10-13T02:58:57;13.23;;;8.25;;
33160;SDS011;19522;45.656;11.302;2022-10-13T03:01:23;15.15;;;9.48;;
33160;SDS011;19522;45.656;11.302;2022-10-13T03:03:48;12.68;;;7.75;;
33160;SDS011;19522;45.656;11.302;2022-10-13T03:06:14;15.45;;;7.35;;
33160;SDS011;19522;45.656;11.302;2022-10-13T03:08:39;13.40;;;8.27;;
33160;SDS011;19522;45.656;11.302;2022-10-13T03:11:05;13.13;;;7.65;;
33160;SDS011;19522;45.656;11.302;2022-10-13T03:13:30;12.45;;;8.13;;
33160;SDS011;19522;45.656;11.302;2022-10-13T03:15:56;14.15;;;8.20;;
33160;SDS011;19522;45.656;11.302;2022-10-13T03:18:21;15.50;;;8.40;;
33160;SDS011;19522;45.656;11.302;2022-10-13T03:21:01;15.13;;;7.93;;
33160;SDS011;19522;45.656;11.302;2022-10-13T03:23:28;14.18;;;8.20;;
33160;SDS011;19522;45.656;11.302;2022-10-13T03:25:54;12.95;;;7.95;;
33160;SDS011;19522;45.656;11.302;2022-10-13T03:28:20;13.43;;;8.65;;
33160;SDS011;19522;45.656;11.302;2022-10-13T03:30:46;14.70;;;7.25;;
33160;SDS011;19522;45.656;11.302;2022-10-13T03:33:12;15.90;;;8.60;;
33160;SDS011;19522;45.656;11.302;2022-10-13T03:35:38;12.15;;;7.90;;
33160;SDS011;19522;45.656;11.302;2022-10-13T03:38:03;12.98;;;7.40;;
33160;SDS011;19522;45.656;11.302;2022-10-13T03:40:29;11.20;;;7.32;;
33160;SDS011;19522;45.656;11.302;2022-10-13T03:42:55;11.38;;;7.65;;
33160;SDS011;19522;45.656;11.302;2022-10-13T03:45:20;15.07;;;7.72;;
33160;SDS011;19522;45.656;11.302;2022-10-13T03:47:46;12.35;;;7.78;;
33160;SDS011;19522;45.656;11.302;2022-10-13T03:50:11;10.82;;;7.63;;
33160;SDS011;19522;45.656;11.302;2022-10-13T03:52:37;13.23;;;7.47;;
33160;SDS011;19522;45.656;11.302;2022-10-13T03:55:03;16.17;;;7.50;;
33160;SDS011;19522;45.656;11.302;2022-10-13T03:57:28;11.38;;;7.38;;
33160;SDS011;19522;45.656;11.302;2022-10-13T03:59:54;12.85;;;7.22;;
33160;SDS011;19522;45.656;11.302;2022-10-13T04:02:21;9.68;;;7.20;;
33160;SDS011;19522;45.656;11.302;2022-10-13T04:04:47;12.82;;;7.50;;
33160;SDS011;19522;45.656;11.302;2022-10-13T04:07:12;10.20;;;7.78;;
33160;SDS011;19522;45.656;11.302;2022-10-13T04:09:38;11.88;;;8.10;;
33160;SDS011;19522;45.656;11.302;2022-10-13T04:12:04;12.43;;;7.40;;
33160;SDS011;19522;45.656;11.302;2022-10-13T04:14:30;13.65;;;7.82;;
33160;SDS011;19522;45.656;11.302;2022-10-13T04:16:55;10.00;;;7.43;;
33160;SDS011;19522;45.656;11.302;2022-10-13T04:19:24;11.00;;;7.72;;
33160;SDS011;19522;45.656;11.302;2022-10-13T04:21:50;11.80;;;7.40;;
33160;SDS011;19522;45.656;11.302;2022-10-13T04:24:15;11.88;;;7.93;;
33160;SDS011;19522;45.656;11.302;2022-10-13T04:26:42;15.50;;;8.07;;
33160;SDS011;19522;45.656;11.302;2022-10-13T04:29:10;11.13;;;8.13;;
33160;SDS011;19522;45.656;11.302;2022-10-13T04:31:39;14.90;;;7.95;;
33160;SDS011;19522;45.656;11.302;2022-10-13T04:34:07;15.13;;;8.10;;
33160;SDS011;19522;45.656;11.302;2022-10-13T04:36:33;11.82;;;7.80;;
33160;SDS011;19522;45.656;11.302;2022-10-13T04:38:59;10.77;;;7.45;;
33160;SDS011;19522;45.656;11.302;2022-10-13T04:41:24;10.85;;;7.43;;
33160;SDS011;19522;45.656;11.302;2022-10-13T04:43:50;12.48;;;7.93;;
33160;SDS011;19522;45.656;11.302;2022-10-13T04:46:19;12.98;;;8.25;;
33160;SDS011;19522;45.656;11.302;2022-10-13T04:48:46;11.27;;;7.88;;
33160;SDS011;19522;45.656;11.302;2022-10-13T04:51:13;12.95;;;7.72;;
33160;SDS011;19522;45.656;11.302;2022-10-13T04:53:41;10.35;;;7.57;;
33160;SDS011;19522;45.656;11.302;2022-10-13T04:56:08;12.88;;;7.43;;
33160;SDS011;19522;45.656;11.302;2022-10-13T04:58:35;11.70;;;8.55;;
33160;SDS011;19522;45.656;11.302;2022-10-13T05:01:02;16.00;;;7.70;;
33160;SDS011;19522;45.656;11.302;2022-10-13T05:03:29;10.70;;;7.60;;
33160;SDS011;19522;45.656;11.302;2022-10-13T05:05:55;14.13;;;8.07;;
33160;SDS011;19522;45.656;11.302;2022-10-13T05:08:20;11.07;;;7.97;;
33160;SDS011;19522;45.656;11.302;2022-10-13T05:10:55;11.82;;;8.20;;
33160;SDS011;19522;45.656;11.302;2022-10-13T05:13:23;12.48;;;7.70;;
33160;SDS011;19522;45.656;11.302;2022-10-13T05:15:49;13.18;;;8.20;;
33160;SDS011;19522;45.656;11.302;2022-10-13T05:18:15;11.20;;;8.27;;
33160;SDS011;19522;45.656;11.302;2022-10-13T05:20:40;13.38;;;8.35;;
33160;SDS011;19522;45.656;11.302;2022-10-13T05:23:06;14.40;;;8.10;;
33160;SDS011;19522;45.656;11.302;2022-10-13T05:25:33;12.60;;;8.13;;
33160;SDS011;19522;45.656;11.302;2022-10-13T05:27:59;14.50;;;7.90;;
33160;SDS011;19522;45.656;11.302;2022-10-13T05:30:25;11.85;;;8.07;;
33160;SDS011;19522;45.656;11.302;2022-10-13T05:32:50;15.57;;;8.88;;
33160;SDS011;19522;45.656;11.302;2022-10-13T05:35:16;15.57;;;9.13;;
33160;SDS011;19522;45.656;11.302;2022-10-13T05:37:41;14.65;;;8.48;;
33160;SDS011;19522;45.656;11.302;2022-10-13T05:40:09;13.45;;;9.23;;
33160;SDS011;19522;45.656;11.302;2022-10-13T05:42:35;16.95;;;9.02;;
33160;SDS011;19522;45.656;11.302;2022-10-13T05:45:04;13.05;;;9.27;;
33160;SDS011;19522;45.656;11.302;2022-10-13T05:47:38;8.93;;;6.03;;
33160;SDS011;19522;45.656;11.302;2022-10-13T05:50:03;16.27;;;8.90;;
33160;SDS011;19522;45.656;11.302;2022-10-13T05:52:29;16.30;;;8.75;;
33160;SDS011;19522;45.656;11.302;2022-10-13T05:54:58;12.27;;;8.13;;
33160;SDS011;19522;45.656;11.302;2022-10-13T05:57:35;17.42;;;9.20;;
33160;SDS011;19522;45.656;11.302;2022-10-13T06:00:08;13.85;;;9.20;;
33160;SDS011;19522;45.656;11.302;2022-10-13T06:02:38;14.30;;;9.85;;
33160;SDS011;19522;45.656;11.302;2022-10-13T06:05:25;13.23;;;9.23;;
33160;SDS011;19522;45.656;11.302;2022-10-13T06:07:52;15.57;;;9.05;;
33160;SDS011;19522;45.656;11.302;2022-10-13T06:10:18;12.75;;;8.52;;
33160;SDS011;19522;45.656;11.302;2022-10-13T06:12:44;11.13;;;7.82;;
33160;SDS011;19522;45.656;11.302;2022-10-13T06:15:11;11.13;;;8.23;;
33160;SDS011;19522;45.656;11.302;2022-10-13T06:17:37;13.85;;;9.45;;
33160;SDS011;19522;45.656;11.302;2022-10-13T06:20:04;17.77;;;9.52;;
33160;SDS011;19522;45.656;11.302;2022-10-13T06:22:30;11.65;;;8.98;;
33160;SDS011;19522;45.656;11.302;2022-10-13T06:24:57;12.57;;;8.02;;
33160;SDS011;19522;45.656;11.302;2022-10-13T06:27:22;15.73;;;10.00;;
33160;SDS011;19522;45.656;11.302;2022-10-13T06:29:48;11.65;;;7.85;;
33160;SDS011;19522;45.656;11.302;2022-10-13T06:32:13;13.65;;;8.70;;
33160;SDS011;19522;45.656;11.302;2022-10-13T06:34:39;12.73;;;8.43;;
33160;SDS011;19522;45.656;11.302;2022-10-13T06:37:04;18.83;;;8.55;;
33160;SDS011;19522;45.656;11.302;2022-10-13T06:39:30;14.20;;;8.63;;
33160;SDS011;19522;45.656;11.302;2022-10-13T06:41:56;16.15;;;8.15;;
33160;SDS011;19522;45.656;11.302;2022-10-13T06:44:21;13.02;;;8.50;;
33160;SDS011;19522;45.656;11.302;2022-10-13T06:46:47;16.85;;;8.38;;
33160;SDS011;19522;45.656;11.302;2022-10-13T06:49:13;20.27;;;8.35;;
33160;SDS011;19522;45.656;11.302;2022-10-13T06:51:38;16.55;;;8.40;;
33160;SDS011;19522;45.656;11.302;2022-10-13T06:54:04;14.63;;;9.27;;
33160;SDS011;19522;45.656;11.302;2022-10-13T06:56:29;15.27;;;8.68;;
33160;SDS011;19522;45.656;11.302;2022-10-13T06:58:55;12.95;;;7.82;;
33160;SDS011;19522;45.656;11.302;2022-10-13T07:01:20;17.90;;;8.05;;
33160;SDS011;19522;45.656;11.302;2022-10-13T07:03:49;15.80;;;8.90;;
33160;SDS011;19522;45.656;11.302;2022-10-13T07:06:16;13.63;;;7.93;;
33160;SDS011;19522;45.656;11.302;2022-10-13T07:08:42;11.35;;;8.88;;
33160;SDS011;19522;45.656;11.302;2022-10-13T07:11:09;14.00;;;9.30;;
33160;SDS011;19522;45.656;11.302;2022-10-13T07:13:37;10.88;;;8.02;;
33160;SDS011;19522;45.656;11.302;2022-10-13T07:16:06;14.43;;;8.05;;
33160;SDS011;19522;45.656;11.302;2022-10-13T07:18:33;11.57;;;8.25;;
33160;SDS011;19522;45.656;11.302;2022-10-13T07:21:03;13.40;;;7.90;;
33160;SDS011;19522;45.656;11.302;2022-10-13T07:23:29;16.70;;;8.52;;
33160;SDS011;19522;45.656;11.302;2022-10-13T07:25:54;12.80;;;7.30;;
33160;SDS011;19522;45.656;11.302;2022-10-13T07:28:24;11.80;;;7.30;;
33160;SDS011;19522;45.656;11.302;2022-10-13T07:30:50;14.80;;;7.82;;
33160;SDS011;19522;45.656;11.302;2022-10-13T07:33:15;15.23;;;7.82;;
33160;SDS011;19522;45.656;11.302;2022-10-13T07:35:41;12.23;;;7.32;;
33160;SDS011;19522;45.656;11.302;2022-10-13T07:38:06;11.93;;;7.53;;
33160;SDS011;19522;45.656;11.302;2022-10-13T07:40:33;12.63;;;8.10;;
33160;SDS011;19522;45.656;11.302;2022-10-13T07:42:59;11.98;;;7.43;;
33160;SDS011;19522;45.656;11.302;2022-10-13T07:45:25;16.88;;;8.07;;
33160;SDS011;19522;45.656;11.302;2022-10-13T07:47:51;12.68;;;7.90;;
33160;SDS011;19522;45.656;11.302;2022-10-13T07:50:17;14.63;;;7.68;;
33160;SDS011;19522;45.656;11.302;2022-10-13T07:52:42;10.45;;;8.05;;
33160;SDS011;19522;45.656;11.302;2022-10-13T07:55:08;11.18;;;7.35;;
33160;SDS011;19522;45.656;11.302;2022-10-13T07:57:33;13.57;;;8.43;;
33160;SDS011;19522;45.656;11.302;2022-10-13T07:59:59;11.68;;;7.13;;
33160;SDS011;19522;45.656;11.302;2022-10-13T08:02:25;15.43;;;8.07;;
33160;SDS011;19522;45.656;11.302;2022-10-13T08:04:50;11.75;;;7.20;;
33160;SDS011;19522;45.656;11.302;2022-10-13T08:07:16;11.93;;;7.03;;
33160;SDS011;19522;45.656;11.302;2022-10-13T08:09:42;12.48;;;7.57;;
33160;SDS011;19522;45.656;11.302;2022-10-13T08:12:08;11.95;;;6.40;;
33160;SDS011;19522;45.656;11.302;2022-10-13T08:14:34;8.65;;;6.00;;
33160;SDS011;19522;45.656;11.302;2022-10-13T08:17:00;12.38;;;6.30;;
33160;SDS011;19522;45.656;11.302;2022-10-13T08:19:26;12.52;;;6.55;;
33160;SDS011;19522;45.656;11.302;2022-10-13T08:21:52;10.13;;;5.90;;
33160;SDS011;19522;45.656;11.302;2022-10-13T08:24:18;15.98;;;7.43;;
33160;SDS011;19522;45.656;11.302;2022-10-13T08:26:44;8.68;;;5.75;;
33160;SDS011;19522;45.656;11.302;2022-10-13T08:29:10;9.90;;;5.95;;
33160;SDS011;19522;45.656;11.302;2022-10-13T08:31:37;10.25;;;5.65;;
33160;SDS011;19522;45.656;11.302;2022-10-13T08:34:05;9.73;;;5.60;;
33160;SDS011;19522;45.656;11.302;2022-10-13T08:36:30;10.95;;;5.80;;
33160;SDS011;19522;45.656;11.302;2022-10-13T08:38:56;12.85;;;6.90;;
33160;SDS011;19522;45.656;11.302;2022-10-13T08:41:29;15.60;;;8.98;;
33160;SDS011;19522;45.656;11.302;2022-10-13T08:44:04;8.68;;;5.82;;
33160;SDS011;19522;45.656;11.302;2022-10-13T08:47:03;10.70;;;6.40;;
33160;SDS011;19522;45.656;11.302;2022-10-13T08:49:39;12.73;;;5.93;;
33160;SDS011;19522;45.656;11.302;2022-10-13T08:52:08;8.68;;;5.55;;
33160;SDS011;19522;45.656;11.302;2022-10-13T08:54:44;11.15;;;6.15;;
33160;SDS011;19522;45.656;11.302;2022-10-13T08:57:10;14.65;;;6.20;;
33160;SDS011;19522;45.656;11.302;2022-10-13T08:59:35;13.55;;;6.45;;
33160;SDS011;19522;45.656;11.302;2022-10-13T09:02:04;9.18;;;5.78;;
33160;SDS011;19522;45.656;11.302;2022-10-13T09:04:38;10.50;;;6.82;;
33160;SDS011;19522;45.656;11.302;2022-10-13T09:09:33;12.45;;;5.95;;
33160;SDS011;19522;45.656;11.302;2022-10-13T09:12:00;11.68;;;5.93;;
33160;SDS011;19522;45.656;11.302;2022-10-13T09:14:28;9.98;;;6.03;;
33160;SDS011;19522;45.656;11.302;2022-10-13T09:17:21;11.23;;;6.45;;
33160;SDS011;19522;45.656;11.302;2022-10-13T09:22:40;10.45;;;6.65;;
33160;SDS011;19522;45.656;11.302;2022-10-13T09:30:35;14.65;;;7.78;;
33160;SDS011;19522;45.656;11.302;2022-10-13T09:38:18;12.13;;;7.03;;
33160;SDS011;19522;45.656;11.302;2022-10-13T09:48:55;11.15;;;7.15;;
33160;SDS011;19522;45.656;11.302;2022-10-13T09:51:35;12.80;;;7.93;;
33160;SDS011;19522;45.656;11.302;2022-10-13T09:54:03;13.60;;;8.57;;
33160;SDS011;19522;45.656;11.302;2022-10-13T09:56:34;15.80;;;8.77;;
33160;SDS011;19522;45.656;11.302;2022-10-13T09:59:11;15.85;;;8.07;;
33160;SDS011;19522;45.656;11.302;2022-10-13T10:01:44;17.60;;;7.85;;
33160;SDS011;19522;45.656;11.302;2022-10-13T10:04:13;15.80;;;8.40;;
33160;SDS011;19522;45.656;11.302;2022-10-13T10:06:41;13.27;;;7.68;;
33160;SDS011;19522;45.656;11.302;2022-10-13T10:09:22;18.00;;;8.23;;
33160;SDS011;19522;45.656;11.302;2022-10-13T10:11:51;13.45;;;8.55;;
33160;SDS011;19522;45.656;11.302;2022-10-13T10:14:26;13.43;;;7.80;;
33160;SDS011;19522;45.656;11.302;2022-10-13T10:22:34;14.25;;;8.27;;
33160;SDS011;19522;45.656;11.302;2022-10-13T10:27:41;13.80;;;8.07;;
33160;SDS011;19522;45.656;11.302;2022-10-13T10:30:18;13.30;;;8.00;;
33160;SDS011;19522;45.656;11.302;2022-10-13T10:38:32;13.23;;;8.40;;
33160;SDS011;19522;45.656;11.302;2022-10-13T10:41:07;13.10;;;8.40;;
33160;SDS011;19522;45.656;11.302;2022-10-13T10:46:38;14.00;;;8.65;;
33160;SDS011;19522;45.656;11.302;2022-10-13T10:49:30;13.30;;;8.40;;
33160;SDS011;19522;45.656;11.302;2022-10-13T10:52:00;16.25;;;9.48;;
33160;SDS011;19522;45.656;11.302;2022-10-13T10:57:05;16.60;;;8.77;;
33160;SDS011;19522;45.656;11.302;2022-10-13T11:05:12;12.77;;;9.02;;
33160;SDS011;19522;45.656;11.302;2022-10-13T11:15:10;13.55;;;8.82;;
33160;SDS011;19522;45.656;11.302;2022-10-13T11:17:39;16.52;;;9.60;;
33160;SDS011;19522;45.656;11.302;2022-10-13T11:25:34;15.68;;;9.60;;
33160;SDS011;19522;45.656;11.302;2022-10-13T11:36:26;20.45;;;10.25;;
33160;SDS011;19522;45.656;11.302;2022-10-13T11:58:17;17.08;;;10.40;;
33160;SDS011;19522;45.656;11.302;2022-10-13T12:00:56;19.65;;;10.18;;
33160;SDS011;19522;45.656;11.302;2022-10-13T12:03:37;16.10;;;10.15;;
33160;SDS011;19522;45.656;11.302;2022-10-13T12:06:05;19.43;;;11.07;;
33160;SDS011;19522;45.656;11.302;2022-10-13T12:08:45;17.60;;;10.80;;
33160;SDS011;19522;45.656;11.302;2022-10-13T12:13:51;16.70;;;10.77;;
33160;SDS011;19522;45.656;11.302;2022-10-13T12:16:17;13.15;;;9.77;;
33160;SDS011;19522;45.656;11.302;2022-10-13T12:18:43;19.83;;;10.63;;
33160;SDS011;19522;45.656;11.302;2022-10-13T12:21:10;17.17;;;9.63;;
33160;SDS011;19522;45.656;11.302;2022-10-13T12:23:40;15.68;;;9.48;;
33160;SDS011;19522;45.656;11.302;2022-10-13T12:26:06;16.35;;;10.00;;
33160;SDS011;19522;45.656;11.302;2022-10-13T12:28:48;14.85;;;9.23;;
33160;SDS011;19522;45.656;11.302;2022-10-13T12:33:56;16.92;;;10.65;;
33160;SDS011;19522;45.656;11.302;2022-10-13T12:38:53;17.17;;;11.38;;
33160;SDS011;19522;45.656;11.302;2022-10-13T12:41:24;19.67;;;11.10;;
33160;SDS011;19522;45.656;11.302;2022-10-13T12:43:52;19.98;;;12.40;;
33160;SDS011;19522;45.656;11.302;2022-10-13T12:46:37;19.20;;;11.75;;
33160;SDS011;19522;45.656;11.302;2022-10-13T12:51:38;17.45;;;11.93;;
33160;SDS011;19522;45.656;11.302;2022-10-13T12:54:20;15.35;;;11.48;;
33160;SDS011;19522;45.656;11.302;2022-10-13T12:56:49;20.52;;;11.50;;
33160;SDS011;19522;45.656;11.302;2022-10-13T12:59:18;16.67;;;10.77;;
33160;SDS011;19522;45.656;11.302;2022-10-13T13:01:51;15.00;;;9.60;;
33160;SDS011;19522;45.656;11.302;2022-10-13T13:07:00;22.52;;;13.15;;
33160;SDS011;19522;45.656;11.302;2022-10-13T13:09:28;18.10;;;12.77;;
33160;SDS011;19522;45.656;11.302;2022-10-13T13:14:37;18.65;;;10.85;;
33160;SDS011;19522;45.656;11.302;2022-10-13T13:17:05;18.77;;;11.68;;
33160;SDS011;19522;45.656;11.302;2022-10-13T13:19:35;19.83;;;12.02;;
33160;SDS011;19522;45.656;11.302;2022-10-13T13:22:01;19.67;;;12.45;;
33160;SDS011;19522;45.656;11.302;2022-10-13T13:24:28;22.92;;;13.70;;
33160;SDS011;19522;45.656;11.302;2022-10-13T13:26:54;15.85;;;11.23;;
33160;SDS011;19522;45.656;11.302;2022-10-13T13:29:19;19.48;;;12.00;;
33160;SDS011;19522;45.656;11.302;2022-10-13T13:31:45;20.80;;;11.60;;
33160;SDS011;19522;45.656;11.302;2022-10-13T13:34:10;22.98;;;12.15;;
33160;SDS011;19522;45.656;11.302;2022-10-13T13:36:36;18.70;;;12.63;;
33160;SDS011;19522;45.656;11.302;2022-10-13T13:39:01;17.52;;;12.32;;
33160;SDS011;19522;45.656;11.302;2022-10-13T13:41:27;22.63;;;11.75;;
33160;SDS011;19522;45.656;11.302;2022-10-13T13:43:55;19.17;;;12.50;;
33160;SDS011;19522;45.656;11.302;2022-10-13T13:46:22;17.00;;;11.80;;
33160;SDS011;19522;45.656;11.302;2022-10-13T13:48:49;18.77;;;12.27;;
33160;SDS011;19522;45.656;11.302;2022-10-13T13:51:15;19.60;;;12.02;;
33160;SDS011;19522;45.656;11.302;2022-10-13T13:53:41;16.70;;;11.63;;
33160;SDS011;19522;45.656;11.302;2022-10-13T13:56:17;18.42;;;12.55;;
33160;SDS011;19522;45.656;11.302;2022-10-13T13:58:45;21.30;;;12.27;;
33160;SDS011;19522;45.656;11.302;2022-10-13T14:01:11;22.67;;;12.45;;
33160;SDS011;19522;45.656;11.302;2022-10-13T14:03:40;19.25;;;12.93;;
33160;SDS011;19522;45.656;11.302;2022-10-13T14:06:05;17.25;;;11.48;;
33160;SDS011;19522;45.656;11.302;2022-10-13T14:08:32;25.92;;;14.23;;
33160;SDS011;19522;45.656;11.302;2022-10-13T14:10:58;18.00;;;12.48;;
33160;SDS011;19522;45.656;11.302;2022-10-13T14:13:24;20.80;;;12.77;;
33160;SDS011;19522;45.656;11.302;2022-10-13T14:15:59;19.02;;;11.85;;
33160;SDS011;19522;45.656;11.302;2022-10-13T14:18:25;18.85;;;11.82;;
33160;SDS011;19522;45.656;11.302;2022-10-13T14:20:52;19.08;;;12.35;;
33160;SDS011;19522;45.656;11.302;2022-10-13T14:23:17;16.50;;;12.15;;
33160;SDS011;19522;45.656;11.302;2022-10-13T14:25:43;17.83;;;12.23;;
33160;SDS011;19522;45.656;11.302;2022-10-13T14:28:08;20.48;;;10.55;;
33160;SDS011;19522;45.656;11.302;2022-10-13T14:30:34;17.52;;;10.95;;
33160;SDS011;19522;45.656;11.302;2022-10-13T14:33:02;21.50;;;13.45;;
33160;SDS011;19522;45.656;11.302;2022-10-13T14:35:28;20.52;;;13.10;;
33160;SDS011;19522;45.656;11.302;2022-10-13T14:37:54;21.75;;;11.80;;
33160;SDS011;19522;45.656;11.302;2022-10-13T14:40:20;16.83;;;10.40;;
33160;SDS011;19522;45.656;11.302;2022-10-13T14:42:45;17.75;;;10.35;;
33160;SDS011;19522;45.656;11.302;2022-10-13T14:45:10;15.35;;;9.93;;
33160;SDS011;19522;45.656;11.302;2022-10-13T14:47:37;16.52;;;11.70;;
33160;SDS011;19522;45.656;11.302;2022-10-13T14:50:03;19.23;;;11.43;;
33160;SDS011;19522;45.656;11.302;2022-10-13T14:52:29;18.58;;;12.55;;
33160;SDS011;19522;45.656;11.302;2022-10-13T14:54:54;22.08;;;12.63;;
33160;SDS011;19522;45.656;11.302;2022-10-13T14:57:19;18.38;;;12.27;;
33160;SDS011;19522;45.656;11.302;2022-10-13T14:59:45;18.13;;;10.88;;
33160;SDS011;19522;45.656;11.302;2022-10-13T15:02:11;17.15;;;10.48;;
33160;SDS011;19522;45.656;11.302;2022-10-13T15:04:37;23.85;;;12.25;;
33160;SDS011;19522;45.656;11.302;2022-10-13T15:07:03;16.88;;;11.23;;
33160;SDS011;19522;45.656;11.302;2022-10-13T15:09:29;29.83;;;12.00;;
33160;SDS011;19522;45.656;11.302;2022-10-13T15:11:54;19.10;;;11.18;;
33160;SDS011;19522;45.656;11.302;2022-10-13T15:14:20;15.25;;;9.90;;
33160;SDS011;19522;45.656;11.302;2022-10-13T15:16:46;20.80;;;11.73;;
33160;SDS011;19522;45.656;11.302;2022-10-13T15:19:11;21.13;;;12.15;;
33160;SDS011;19522;45.656;11.302;2022-10-13T15:21:37;17.23;;;11.23;;
33160;SDS011;19522;45.656;11.302;2022-10-13T15:24:02;16.52;;;10.23;;
33160;SDS011;19522;45.656;11.302;2022-10-13T15:26:28;23.88;;;10.95;;
33160;SDS011;19522;45.656;11.302;2022-10-13T15:28:53;17.60;;;10.77;;
33160;SDS011;19522;45.656;11.302;2022-10-13T15:31:19;12.90;;;9.15;;
33160;SDS011;19522;45.656;11.302;2022-10-13T15:33:47;15.32;;;9.70;;
33160;SDS011;19522;45.656;11.302;2022-10-13T15:36:15;15.55;;;9.43;;
33160;SDS011;19522;45.656;11.302;2022-10-13T15:38:41;18.60;;;9.93;;
33160;SDS011;19522;45.656;11.302;2022-10-13T15:41:10;15.93;;;9.18;;
33160;SDS011;19522;45.656;11.302;2022-10-13T15:43:36;13.82;;;9.25;;
33160;SDS011;19522;45.656;11.302;2022-10-13T15:46:06;12.25;;;9.07;;
33160;SDS011;19522;45.656;11.302;2022-10-13T15:48:34;16.30;;;9.55;;
33160;SDS011;19522;45.656;11.302;2022-10-13T15:51:00;15.52;;;10.45;;
33160;SDS011;19522;45.656;11.302;2022-10-13T15:53:26;17.70;;;10.43;;
33160;SDS011;19522;45.656;11.302;2022-10-13T15:55:53;16.80;;;10.30;;
33160;SDS011;19522;45.656;11.302;2022-10-13T15:58:19;17.58;;;10.75;;
33160;SDS011;19522;45.656;11.302;2022-10-13T16:00:44;17.30;;;10.85;;
33160;SDS011;19522;45.656;11.302;2022-10-13T16:03:11;19.35;;;9.52;;
33160;SDS011;19522;45.656;11.302;2022-10-13T16:05:44;15.82;;;9.98;;
33160;SDS011;19522;45.656;11.302;2022-10-13T16:08:10;18.42;;;10.35;;
33160;SDS011;19522;45.656;11.302;2022-10-13T16:10:40;19.08;;;11.02;;
33160;SDS011;19522;45.656;11.302;2022-10-13T16:13:07;19.52;;;12.23;;
33160;SDS011;19522;45.656;11.302;2022-10-13T16:15:36;16.02;;;11.13;;
33160;SDS011;19522;45.656;11.302;2022-10-13T16:18:01;20.77;;;12.27;;
33160;SDS011;19522;45.656;11.302;2022-10-13T16:20:28;16.20;;;10.35;;
33160;SDS011;19522;45.656;11.302;2022-10-13T16:22:58;15.90;;;10.98;;
33160;SDS011;19522;45.656;11.302;2022-10-13T16:25:24;17.60;;;11.40;;
33160;SDS011;19522;45.656;11.302;2022-10-13T16:27:49;23.40;;;11.77;;
33160;SDS011;19522;45.656;11.302;2022-10-13T16:30:15;21.33;;;12.38;;
33160;SDS011;19522;45.656;11.302;2022-10-13T16:32:40;18.67;;;12.30;;
33160;SDS011;19522;45.656;11.302;2022-10-13T16:35:06;24.38;;;11.95;;
33160;SDS011;19522;45.656;11.302;2022-10-13T16:37:32;19.33;;;12.00;;